createdAt,value
2023-05-10T00:02:25.645Z,101182.38
2023-05-10T00:04:52.274Z,101185.09
2023-05-10T00:07:18.759Z,101186.59
2023-05-10T00:09:45.291Z,101188.66
2023-05-10T00:12:11.633Z,101187.81
2023-05-10T00:14:37.992Z,101186.59
2023-05-10T00:17:04.396Z,101176.72
2023-05-10T00:19:30.902Z,101181.13
2023-05-10T00:21:57.317Z,101178.06
2023-05-10T00:24:23.687Z,101178.91
2023-05-10T00:26:51.918Z,101173.81
2023-05-10T00:29:18.469Z,101170.06
2023-05-10T00:31:44.889Z,101175.53
2023-05-10T00:34:11.301Z,101173.63
2023-05-10T00:36:37.756Z,101173.63
2023-05-10T00:39:04.639Z,101162.03
2023-05-10T00:41:33.718Z,101165.66
2023-05-10T00:44:00.201Z,101160.19
2023-05-10T00:46:26.968Z,101162.91
2023-05-10T00:48:53.775Z,101153.88
2023-05-10T00:51:20.174Z,101157.81
2023-05-10T00:53:47.123Z,101154.06
2023-05-10T00:56:13.973Z,101152.38
2023-05-10T00:58:40.835Z,101148.59
2023-05-10T01:01:07.893Z,101143.16
2023-05-10T01:03:34.456Z,101147.75
2023-05-10T01:06:00.996Z,101153.03
2023-05-10T01:08:27.779Z,101140.44
2023-05-10T01:10:54.821Z,101136.00
2023-05-10T01:13:31.703Z,101140.06
2023-05-10T01:15:58.677Z,101136.09
2023-05-10T01:18:25.992Z,101136.78
2023-05-10T01:21:00.231Z,101136.97
2023-05-10T01:23:46.824Z,101134.41
2023-05-10T01:26:26.644Z,101128.13
2023-05-10T01:28:58.796Z,101130.84
2023-05-10T01:31:31.334Z,101129.81
2023-05-10T01:34:03.424Z,101128.97
2023-05-10T01:36:29.789Z,101113.84
2023-05-10T01:39:08.490Z,101117.22
2023-05-10T01:41:41.034Z,101112.59
2023-05-10T01:44:32.272Z,101110.91
2023-05-10T01:47:18.287Z,101111.09
2023-05-10T01:49:47.754Z,101103.09
2023-05-10T01:52:16.847Z,101111.28
2023-05-10T01:54:45.718Z,101104.78
2023-05-10T01:57:15.039Z,101103.09
2023-05-10T01:59:44.466Z,101110.63
2023-05-10T02:02:13.108Z,101104.31
2023-05-10T02:04:40.733Z,101115.22
2023-05-10T02:07:07.759Z,101109.47
2023-05-10T02:09:35.642Z,101099.22
2023-05-10T02:12:03.644Z,101101.13
2023-05-10T02:14:31.694Z,101101.28
2023-05-10T02:16:59.551Z,101107.56
2023-05-10T02:19:27.130Z,101098.56
2023-05-10T02:21:53.955Z,101098.56
2023-05-10T02:24:21.061Z,101094.97
2023-05-10T02:26:48.682Z,101101.28
2023-05-10T02:29:15.616Z,101098.56
2023-05-10T02:31:44.568Z,101098.75
2023-05-10T02:34:11.453Z,101089.91
2023-05-10T02:36:39.596Z,101094.00
2023-05-10T02:39:10.550Z,101093.13
2023-05-10T02:41:37.873Z,101094.00
2023-05-10T02:44:07.756Z,101091.44
2023-05-10T02:46:34.463Z,101092.13
2023-05-10T02:49:01.947Z,101085.81
2023-05-10T02:51:32.931Z,101083.94
2023-05-10T02:54:02.268Z,101086.47
2023-05-10T02:56:33.958Z,101090.03
2023-05-10T02:59:00.365Z,101085.44
2023-05-10T03:01:26.787Z,101086.47
2023-05-10T03:03:53.214Z,101080.00
2023-05-10T03:06:19.716Z,101080.19
2023-05-10T03:08:46.273Z,101077.25
2023-05-10T03:11:33.220Z,101079.13
2023-05-10T03:14:11.105Z,101086.16
2023-05-10T03:16:44.806Z,101087.00
2023-05-10T03:19:23.461Z,101083.56
2023-05-10T03:21:51.840Z,101074.53
2023-05-10T03:24:21.309Z,101084.47
2023-05-10T03:26:48.272Z,101070.84
2023-05-10T03:29:15.819Z,101083.22
2023-05-10T03:31:42.630Z,101085.13
2023-05-10T03:34:09.163Z,101079.66
2023-05-10T03:36:35.476Z,101083.22
2023-05-10T03:39:01.837Z,101081.19
2023-05-10T03:41:28.366Z,101073.16
2023-05-10T03:43:54.710Z,101080.50
2023-05-10T03:46:21.064Z,101074.84
2023-05-10T03:48:47.509Z,101067.56
2023-05-10T03:51:13.923Z,101076.75
2023-05-10T03:53:40.269Z,101078.81
2023-05-10T03:56:06.711Z,101080.69
2023-05-10T03:58:33.051Z,101079.66
2023-05-10T04:00:59.371Z,101082.19
2023-05-10T04:03:26.888Z,101071.47
2023-05-10T04:05:59.850Z,101074.72
2023-05-10T04:08:26.275Z,101075.56
2023-05-10T04:10:52.627Z,101081.75
2023-05-10T04:13:19.966Z,101070.84
2023-05-10T04:15:46.421Z,101068.75
2023-05-10T04:18:12.754Z,101070.63
2023-05-10T04:20:39.128Z,101069.78
2023-05-10T04:23:05.511Z,101078.28
2023-05-10T04:25:34.677Z,101069.09
2023-05-10T04:28:01.038Z,101071.81
2023-05-10T04:30:29.499Z,101061.94
2023-05-10T04:32:55.879Z,101061.75
2023-05-10T04:35:22.435Z,101063.63
2023-05-10T04:37:48.782Z,101063.81
2023-05-10T04:40:15.513Z,101056.69
2023-05-10T04:42:44.828Z,101073.19
2023-05-10T04:45:11.317Z,101059.78
2023-05-10T04:47:40.557Z,101070.47
2023-05-10T04:50:07.362Z,101058.72
2023-05-10T04:52:33.803Z,101066.56
2023-05-10T04:55:00.219Z,101064.66
2023-05-10T04:57:26.616Z,101063.63
2023-05-10T04:59:53.028Z,101059.72
2023-05-10T05:02:19.459Z,101054.28
2023-05-10T05:04:45.839Z,101049.88
2023-05-10T05:07:12.267Z,101062.66
2023-05-10T05:09:38.684Z,101068.44
2023-05-10T05:12:05.225Z,101055.66
2023-05-10T05:14:31.680Z,101058.38
2023-05-10T05:16:58.589Z,101065.50
2023-05-10T05:19:24.995Z,101059.94
2023-05-10T05:21:51.417Z,101058.88
2023-05-10T05:24:17.790Z,101054.28
2023-05-10T05:26:44.129Z,101058.50
2023-05-10T05:29:10.454Z,101063.78
2023-05-10T05:31:36.975Z,101053.03
2023-05-10T05:34:03.500Z,101061.22
2023-05-10T05:36:29.849Z,101055.97
2023-05-10T05:38:56.211Z,101053.25
2023-05-10T05:41:22.745Z,101046.75
2023-05-10T05:43:49.179Z,101052.19
2023-05-10T05:46:15.767Z,101050.31
2023-05-10T05:48:42.313Z,101053.72
2023-05-10T05:51:08.634Z,101046.19
2023-05-10T05:53:35.110Z,101049.13
2023-05-10T05:56:01.586Z,101049.59
2023-05-10T05:58:28.041Z,101050.25
2023-05-10T06:00:54.375Z,101063.88
2023-05-10T06:03:21.197Z,101048.19
2023-05-10T06:05:47.894Z,101062.47
2023-05-10T06:08:14.282Z,101056.00
2023-05-10T06:10:40.710Z,101063.16
2023-05-10T06:13:07.197Z,101058.34
2023-05-10T06:15:33.738Z,101051.03
2023-05-10T06:18:00.414Z,101054.41
2023-05-10T06:20:27.061Z,101051.50
2023-05-10T06:22:53.503Z,101040.41
2023-05-10T06:25:19.913Z,101058.94
2023-05-10T06:27:49.836Z,101054.81
2023-05-10T06:30:18.422Z,101051.31
2023-05-10T06:32:46.031Z,101055.78
2023-05-10T06:35:12.476Z,101041.25
2023-05-10T06:37:38.961Z,101049.28
2023-05-10T06:40:06.232Z,101045.50
2023-05-10T06:42:32.651Z,101050.59
2023-05-10T06:44:59.024Z,101036.75
2023-05-10T06:47:25.797Z,101037.78
2023-05-10T06:49:52.191Z,101045.97
2023-05-10T06:52:18.711Z,101037.78
2023-05-10T06:54:45.397Z,101037.97
2023-05-10T06:57:23.428Z,101050.19
2023-05-10T06:59:57.564Z,101041.16
2023-05-10T07:02:24.048Z,101042.69
2023-05-10T07:04:51.306Z,101040.81
2023-05-10T07:07:17.757Z,101021.50
2023-05-10T07:09:44.178Z,101021.50
2023-05-10T07:12:12.779Z,101022.19
2023-05-10T07:14:40.994Z,101031.22
2023-05-10T07:17:07.421Z,101020.28
2023-05-10T07:19:33.830Z,101020.97
2023-05-10T07:22:00.230Z,101010.06
2023-05-10T07:24:26.560Z,101013.63
2023-05-10T07:26:53.077Z,101005.22
2023-05-10T07:29:19.496Z,101013.22
2023-05-10T07:31:45.937Z,101032.31
2023-05-10T07:34:12.319Z,101020.56
2023-05-10T07:36:38.727Z,101006.75
2023-05-10T07:39:05.166Z,101012.84
2023-05-10T07:41:31.729Z,101008.44
2023-05-10T07:43:58.289Z,101009.06
2023-05-10T07:46:24.899Z,101004.50
2023-05-10T07:48:51.293Z,101004.28
2023-05-10T07:51:17.744Z,101007.66
2023-05-10T07:53:44.203Z,100999.47
2023-05-10T07:56:33.230Z,101021.97
2023-05-10T07:59:00.186Z,100994.69
2023-05-10T08:01:27.722Z,101001.84
2023-05-10T08:03:54.592Z,100998.06
2023-05-10T08:06:21.892Z,100994.31
2023-05-10T08:08:50.710Z,100990.53
2023-05-10T08:11:18.506Z,100994.75
2023-05-10T08:13:49.248Z,101001.75
2023-05-10T08:16:15.750Z,101003.66
2023-05-10T08:18:42.256Z,100989.78
2023-05-10T08:21:08.697Z,100998.81
2023-05-10T08:23:35.124Z,100991.69
2023-05-10T08:26:01.534Z,100999.69
2023-05-10T08:28:28.414Z,101013.34
2023-05-10T08:30:54.870Z,100993.19
2023-05-10T08:33:21.347Z,101025.75
2023-05-10T08:35:47.761Z,101003.91
2023-05-10T08:38:14.099Z,100989.22
2023-05-10T08:40:42.393Z,101004.59
2023-05-10T08:43:09.828Z,100992.63
2023-05-10T08:45:40.935Z,100999.13
2023-05-10T08:48:08.144Z,100991.56
2023-05-10T08:50:38.788Z,100985.06
2023-05-10T08:53:06.296Z,100991.38
2023-05-10T08:55:33.928Z,100996.66
2023-05-10T08:58:03.310Z,101006.53
2023-05-10T09:00:29.801Z,100985.16
2023-05-10T09:02:56.694Z,100986.69
2023-05-10T09:05:23.165Z,100992.78
2023-05-10T09:07:49.594Z,100989.84
2023-05-10T09:10:16.228Z,100995.97
2023-05-10T09:12:42.753Z,100997.84
2023-05-10T09:15:10.182Z,101008.78
2023-05-10T09:17:37.156Z,100992.41
2023-05-10T09:20:05.026Z,100986.94
2023-05-10T09:22:31.735Z,100989.66
2023-05-10T09:25:24.571Z,101001.22
2023-05-10T09:27:51.243Z,100982.13
2023-05-10T09:30:18.964Z,100993.03
2023-05-10T09:32:46.668Z,100980.06
2023-05-10T09:35:14.410Z,100973.53
2023-05-10T09:37:42.508Z,101003.59
2023-05-10T09:40:11.978Z,101005.09
2023-05-10T09:42:38.348Z,100982.00
2023-05-10T09:45:05.177Z,100987.28
2023-05-10T09:47:37.744Z,100985.19
2023-05-10T09:50:05.245Z,100981.41
2023-05-10T09:52:32.185Z,100978.03
2023-05-10T09:54:58.671Z,100983.88
2023-05-10T09:57:26.479Z,100974.66
2023-05-10T09:59:55.269Z,100972.31
2023-05-10T10:02:22.252Z,100975.06
2023-05-10T10:04:50.218Z,100980.06
2023-05-10T10:07:23.007Z,100982.78
2023-05-10T10:09:49.420Z,100985.88
2023-05-10T10:12:15.738Z,100975.16
2023-05-10T10:14:42.610Z,100972.25
2023-05-10T10:17:09.608Z,100963.41
2023-05-10T10:19:36.898Z,100966.13
2023-05-10T10:22:03.857Z,100971.59
2023-05-10T10:24:30.340Z,100979.78
2023-05-10T10:26:58.418Z,100969.88
2023-05-10T10:29:31.713Z,100971.78
2023-05-10T10:32:20.628Z,100964.41
2023-05-10T10:34:47.427Z,100967.16
2023-05-10T10:37:13.819Z,100961.69
2023-05-10T10:39:40.265Z,100971.59
2023-05-10T10:42:06.651Z,100971.41
2023-05-10T10:44:36.005Z,100976.66
2023-05-10T10:47:03.678Z,100969.50
2023-05-10T10:49:34.575Z,100969.03
2023-05-10T10:52:21.480Z,100962.75
2023-05-10T10:54:57.840Z,100968.19
2023-05-10T10:57:24.205Z,100960.00
2023-05-10T10:59:50.677Z,100959.81
2023-05-10T11:02:55.886Z,100980.81
2023-05-10T11:05:25.665Z,100966.31
2023-05-10T11:07:55.959Z,100970.72
2023-05-10T11:10:23.089Z,100976.19
2023-05-10T11:13:21.924Z,100966.13
2023-05-10T11:15:49.396Z,100959.81
2023-05-10T11:18:19.410Z,100965.25
2023-05-10T11:20:51.115Z,100971.59
2023-05-10T11:23:18.899Z,100965.25
2023-05-10T11:25:48.937Z,100983.38
2023-05-10T11:28:15.378Z,100961.31
2023-05-10T11:30:43.108Z,100965.94
2023-05-10T11:33:09.920Z,100948.69
2023-05-10T11:35:42.996Z,100977.50
2023-05-10T11:38:10.584Z,100978.38
2023-05-10T11:40:37.551Z,100955.66
2023-05-10T11:43:04.547Z,100966.41
2023-05-10T11:45:34.415Z,100967.25
2023-05-10T11:48:01.234Z,100973.34
2023-05-10T11:50:27.732Z,100955.28
2023-05-10T11:52:54.766Z,100976.91
2023-05-10T11:55:21.239Z,100963.25
2023-05-10T11:57:47.741Z,100972.31
2023-05-10T12:00:14.998Z,100967.69
2023-05-10T12:02:42.009Z,100965.81
2023-05-10T12:05:08.778Z,100972.97
2023-05-10T12:07:35.974Z,100965.81
2023-05-10T12:10:09.970Z,100970.22
2023-05-10T12:12:37.880Z,100960.16
2023-05-10T12:15:04.914Z,100989.34
2023-05-10T12:17:31.284Z,100971.06
2023-05-10T12:20:15.026Z,100971.91
2023-05-10T12:22:41.574Z,100990.84
2023-05-10T12:25:09.320Z,100970.91
2023-05-10T12:27:36.152Z,100967.13
2023-05-10T12:30:02.844Z,100978.88
2023-05-10T12:32:39.625Z,100973.41
2023-05-10T12:35:06.196Z,100967.13
2023-05-10T12:37:36.735Z,100968.81
2023-05-10T12:40:04.009Z,100969.63
2023-05-10T12:42:31.091Z,100976.78
2023-05-10T12:44:57.869Z,100977.00
2023-05-10T12:47:24.370Z,100978.69
2023-05-10T12:49:52.191Z,100976.78
2023-05-10T12:52:18.582Z,100974.94
2023-05-10T12:54:44.897Z,100974.94
2023-05-10T12:57:11.355Z,100970.31
2023-05-10T12:59:38.301Z,100992.16
2023-05-10T13:02:04.895Z,100975.78
2023-05-10T13:04:31.345Z,100974.72
2023-05-10T13:06:59.973Z,100977.25
2023-05-10T13:09:27.585Z,100978.09
2023-05-10T13:11:56.730Z,100977.91
2023-05-10T13:14:23.176Z,100966.78
2023-05-10T13:16:49.687Z,100970.56
2023-05-10T13:19:16.988Z,100973.94
2023-05-10T13:21:43.687Z,100988.47
2023-05-10T13:24:10.165Z,100987.41
2023-05-10T13:26:37.244Z,100985.53
2023-05-10T13:29:04.149Z,100965.16
2023-05-10T13:31:30.689Z,100973.34
2023-05-10T13:33:57.294Z,100973.34
2023-05-10T13:36:23.860Z,100964.13
2023-05-10T13:38:50.253Z,100956.13
2023-05-10T13:41:16.635Z,100955.09
2023-05-10T13:43:43.067Z,100971.50
2023-05-10T13:46:09.507Z,100958.84
2023-05-10T13:48:39.180Z,100965.16
2023-05-10T13:51:05.702Z,100950.66
2023-05-10T13:53:32.151Z,100952.75
2023-05-10T13:55:58.659Z,100969.97
2023-05-10T13:58:25.107Z,100948.34
2023-05-10T14:00:51.496Z,100960.09
2023-05-10T14:03:18.115Z,100951.06
2023-05-10T14:05:46.007Z,100966.63
2023-05-10T14:08:14.152Z,100951.91
2023-05-10T14:10:40.627Z,100960.09
2023-05-10T14:13:07.455Z,100952.75
2023-05-10T14:15:33.865Z,100955.47
2023-05-10T14:18:00.579Z,100955.47
2023-05-10T14:20:27.033Z,100948.34
2023-05-10T14:22:53.428Z,100954.44
2023-05-10T14:25:20.008Z,100953.59
2023-05-10T14:27:46.603Z,100948.13
2023-05-10T14:30:13.141Z,100951.69
2023-05-10T14:32:39.676Z,100949.81
2023-05-10T14:35:07.082Z,100948.13
2023-05-10T14:37:33.726Z,100937.19
2023-05-10T14:40:00.250Z,100949.81
2023-05-10T14:42:26.795Z,100940.56
2023-05-10T14:44:53.245Z,100940.38
2023-05-10T14:47:19.653Z,100935.56
2023-05-10T14:49:46.059Z,100937.44
2023-05-10T14:52:13.320Z,100932.66
2023-05-10T14:54:40.014Z,100941.69
2023-05-10T14:57:07.424Z,100931.81
2023-05-10T14:59:33.796Z,100936.22
2023-05-10T15:02:00.669Z,100939.78
2023-05-10T15:04:29.194Z,100936.22
2023-05-10T15:07:00.133Z,100948.84
2023-05-10T15:09:28.458Z,100945.72
2023-05-10T15:11:55.364Z,100935.84
2023-05-10T15:14:21.798Z,100929.50
2023-05-10T15:16:48.157Z,100940.84
2023-05-10T15:19:14.511Z,100943.75
2023-05-10T15:21:43.458Z,100946.69
2023-05-10T15:24:10.576Z,100943.13
2023-05-10T15:26:36.946Z,100943.28
2023-05-10T15:29:03.371Z,100938.88
2023-05-10T15:31:29.811Z,100941.63
2023-05-10T15:34:02.037Z,100938.03
2023-05-10T15:36:28.443Z,100945.19
2023-05-10T15:38:55.578Z,100944.56
2023-05-10T15:41:21.881Z,100940.97
2023-05-10T15:43:48.243Z,100942.88
2023-05-10T15:46:14.580Z,100936.34
2023-05-10T15:48:40.990Z,100938.25
2023-05-10T15:51:07.365Z,100930.69
2023-05-10T15:53:33.703Z,100934.94
2023-05-10T15:56:00.106Z,100943.97
2023-05-10T15:58:26.498Z,100942.91
2023-05-10T16:00:52.962Z,100941.03
2023-05-10T16:03:19.366Z,100943.75
2023-05-10T16:05:45.794Z,100938.28
2023-05-10T16:08:12.159Z,100941.88
2023-05-10T16:10:38.704Z,100942.75
2023-05-10T16:13:05.165Z,100949.03
2023-05-10T16:15:31.570Z,100939.78
2023-05-10T16:17:58.104Z,100942.53
2023-05-10T16:20:24.838Z,100940.44
2023-05-10T16:22:51.287Z,100939.59
2023-05-10T16:25:17.915Z,100944.41
2023-05-10T16:27:44.701Z,100953.47
2023-05-10T16:30:11.242Z,100944.22
2023-05-10T16:32:37.751Z,100946.09
2023-05-10T16:35:04.819Z,100952.22
2023-05-10T16:37:31.298Z,100949.50
2023-05-10T16:39:57.777Z,100959.56
2023-05-10T16:42:25.133Z,100963.16
2023-05-10T16:44:51.558Z,100954.97
2023-05-10T16:47:18.174Z,100961.44
2023-05-10T16:49:44.575Z,100969.47
2023-05-10T16:52:11.135Z,100958.53
2023-05-10T16:54:37.517Z,100963.34
2023-05-10T16:57:03.924Z,100962.50
2023-05-10T16:59:30.318Z,100969.00
2023-05-10T17:01:56.799Z,100973.44
2023-05-10T17:04:23.259Z,100969.66
2023-05-10T17:06:49.608Z,100974.09
2023-05-10T17:09:15.948Z,100970.50
2023-05-10T17:11:42.347Z,100977.66
2023-05-10T17:14:08.732Z,100977.84
2023-05-10T17:16:35.818Z,100987.94
2023-05-10T17:19:02.370Z,100979.94
2023-05-10T17:21:28.736Z,100988.13
2023-05-10T17:23:55.098Z,100979.94
2023-05-10T17:26:22.408Z,100988.97
2023-05-10T17:28:48.780Z,100988.13
2023-05-10T17:31:15.265Z,100993.41
2023-05-10T17:33:42.139Z,100999.91
2023-05-10T17:36:08.740Z,101004.53
2023-05-10T17:38:35.948Z,101001.97
2023-05-10T17:41:02.315Z,101006.41
2023-05-10T17:43:28.729Z,101006.59
2023-05-10T17:45:55.218Z,101010.56
2023-05-10T17:48:21.976Z,101014.16
2023-05-10T17:50:49.913Z,101011.59
2023-05-10T17:53:16.374Z,101014.53
2023-05-10T17:55:43.672Z,101015.38
2023-05-10T17:58:11.288Z,101026.13
2023-05-10T18:00:38.333Z,101022.34
2023-05-10T18:03:05.447Z,101024.25
2023-05-10T18:05:35.397Z,101027.16
2023-05-10T18:08:01.957Z,101030.72
2023-05-10T18:10:28.376Z,101029.03
2023-05-10T18:12:54.713Z,101034.31
2023-05-10T18:15:21.148Z,101029.88
2023-05-10T18:17:49.181Z,101035.34
2023-05-10T18:20:15.592Z,101040.81
2023-05-10T18:22:41.973Z,101045.44
2023-05-10T18:25:08.584Z,101043.75
2023-05-10T18:27:35.067Z,101043.75
2023-05-10T18:30:01.494Z,101047.31
2023-05-10T18:32:28.095Z,101045.44
2023-05-10T18:34:55.778Z,101055.50
2023-05-10T18:37:22.487Z,101051.09
2023-05-10T18:39:48.912Z,101054.88
2023-05-10T18:42:15.347Z,101052.13
2023-05-10T18:44:41.750Z,101063.06
2023-05-10T18:47:08.290Z,101067.69
2023-05-10T18:49:34.674Z,101074.16
2023-05-10T18:52:01.065Z,101076.06
2023-05-10T18:54:27.506Z,101077.75
2023-05-10T18:56:53.936Z,101079.63
2023-05-10T18:59:20.356Z,101078.78
2023-05-10T19:01:47.214Z,101095.19
2023-05-10T19:04:14.880Z,101106.09
2023-05-10T19:06:42.006Z,101108.84
2023-05-10T19:09:08.964Z,101122.50
2023-05-10T19:11:35.949Z,101121.66
2023-05-10T19:14:02.509Z,101127.97
2023-05-10T19:16:30.585Z,101123.34
2023-05-10T19:18:57.462Z,101120.81
2023-05-10T19:21:24.017Z,101123.34
2023-05-10T19:23:50.592Z,101128.81
2023-05-10T19:26:17.104Z,101130.69
2023-05-10T19:28:43.965Z,101140.78
2023-05-10T19:31:10.618Z,101137.84
2023-05-10T19:33:38.338Z,101133.25
2023-05-10T19:36:05.163Z,101136.16
2023-05-10T19:38:31.533Z,101129.66
2023-05-10T19:40:58.547Z,101127.97
2023-05-10T19:43:25.538Z,101135.13
2023-05-10T19:45:51.978Z,101126.06
2023-05-10T19:48:18.491Z,101127.13
2023-05-10T19:50:44.846Z,101134.28
2023-05-10T19:53:11.387Z,101137.84
2023-05-10T19:55:38.026Z,101138.88
2023-05-10T19:58:05.278Z,101141.63
2023-05-10T20:00:31.779Z,101139.72
2023-05-10T20:02:58.292Z,101148.13
2023-05-10T20:05:24.771Z,101143.50
2023-05-10T20:07:51.250Z,101150.88
2023-05-10T20:10:18.269Z,101151.06
2023-05-10T20:12:51.373Z,101158.22
2023-05-10T20:15:21.981Z,101149.34
2023-05-10T20:17:49.159Z,101156.53
2023-05-10T20:20:18.587Z,101158.38
2023-05-10T20:22:45.316Z,101155.66
2023-05-10T20:25:12.432Z,101157.53
2023-05-10T20:27:38.902Z,101149.34
2023-05-10T20:30:06.017Z,101156.69
2023-05-10T20:32:32.510Z,101159.44
2023-05-10T20:34:58.984Z,101159.44
2023-05-10T20:37:27.361Z,101164.03
2023-05-10T20:39:54.127Z,101165.75
2023-05-10T20:42:21.359Z,101158.78
2023-05-10T20:44:47.697Z,101163.41
2023-05-10T20:47:14.652Z,101159.81
2023-05-10T20:49:41.168Z,101159.81
2023-05-10T20:52:07.675Z,101157.06
2023-05-10T20:54:34.036Z,101159.81
2023-05-10T20:57:02.024Z,101165.09
2023-05-10T20:59:28.783Z,101152.47
2023-05-10T21:01:56.754Z,101153.69
2023-05-10T21:04:23.150Z,101157.06
2023-05-10T21:06:49.555Z,101160.84
2023-05-10T21:09:17.462Z,101160.00
2023-05-10T21:11:44.160Z,101158.31
2023-05-10T21:14:10.612Z,101161.03
2023-05-10T21:16:37.016Z,101155.59
2023-05-10T21:19:03.569Z,101163.78
2023-05-10T21:21:30.017Z,101170.72
2023-05-10T21:23:56.351Z,101170.56
2023-05-10T21:26:23.367Z,101172.91
2023-05-10T21:28:49.799Z,101166.41
2023-05-10T21:31:16.212Z,101165.16
2023-05-10T21:33:42.575Z,101167.31
2023-05-10T21:36:09.560Z,101166.09
2023-05-10T21:38:36.178Z,101166.78
2023-05-10T21:41:06.172Z,101171.00
2023-05-10T21:43:32.525Z,101169.78
2023-05-10T21:45:59.055Z,101178.81
2023-05-10T21:48:25.718Z,101177.78
2023-05-10T21:50:52.421Z,101181.34
2023-05-10T21:53:18.811Z,101180.13
2023-05-10T21:55:45.237Z,101186.44
2023-05-10T21:58:11.654Z,101191.72
2023-05-10T22:00:38.069Z,101179.94
2023-05-10T22:03:04.564Z,101186.06
2023-05-10T22:05:31.098Z,101185.03
2023-05-10T22:07:57.582Z,101191.34
2023-05-10T22:10:23.966Z,101189.66
2023-05-10T22:12:50.468Z,101192.19
2023-05-10T22:15:17.129Z,101191.34
2023-05-10T22:17:43.504Z,101186.91
2023-05-10T22:20:10.028Z,101180.41
2023-05-10T22:22:36.787Z,101185.03
2023-05-10T22:25:04.011Z,101194.06
2023-05-10T22:27:30.399Z,101188.59
2023-05-10T22:29:56.837Z,101194.91
2023-05-10T22:32:23.295Z,101191.34
2023-05-10T22:34:49.753Z,101194.75
2023-05-10T22:37:18.063Z,101192.19
2023-05-10T22:39:48.650Z,101198.50
2023-05-10T22:42:15.068Z,101194.75
2023-05-10T22:44:41.767Z,101202.25
2023-05-10T22:47:09.063Z,101203.09
2023-05-10T22:49:35.472Z,101200.22
2023-05-10T22:52:01.839Z,101210.09
2023-05-10T22:54:28.252Z,101211.13
2023-05-10T22:56:54.655Z,101204.44
2023-05-10T22:59:21.153Z,101212.63
2023-05-10T23:01:49.015Z,101218.97
2023-05-10T23:04:15.788Z,101220.69
2023-05-10T23:06:42.274Z,101219.63
2023-05-10T23:09:08.972Z,101220.69
2023-05-10T23:11:35.386Z,101228.00
2023-05-10T23:14:01.918Z,101228.69
2023-05-10T23:16:28.327Z,101222.38
2023-05-10T23:18:54.862Z,101230.56
2023-05-10T23:21:21.528Z,101227.84
2023-05-10T23:23:48.016Z,101230.56
2023-05-10T23:26:14.457Z,101226.28
2023-05-10T23:28:41.085Z,101228.00
2023-05-10T23:31:07.416Z,101222.38
2023-05-10T23:33:33.756Z,101230.38
2023-05-10T23:36:00.203Z,101233.94
2023-05-10T23:38:26.978Z,101237.53
2023-05-10T23:40:53.486Z,101242.16
2023-05-10T23:43:20.819Z,101241.13
2023-05-10T23:45:54.120Z,101233.94
2023-05-10T23:48:20.725Z,101238.41
2023-05-10T23:50:47.471Z,101234.78
2023-05-10T23:53:13.846Z,101230.19
2023-05-10T23:55:40.285Z,101229.31
2023-05-10T23:58:06.961Z,101232.06
